Terminal Aerodrome Forecast
Issued by NWS

Home | Current Version | Previous Version | Text Only | Print | Product List | Glossary On
Versions: 1 2 3 4 5 6 7 8 9 10 11 12 13 14
000
FTAK31 PAFA 152336
TAFAQT
TAF
PAQT 152336Z 1600/1624 VRB03KT P6SM FEW070 FEW120
     FM160800 25004KT 2SM BR SCT004 BKN050
     FM161600 26005KT 4SM BR SCT004 BKN015=

USA.gov is the U.S. government's official web portal to all federal, state and local government web resources and services.